createdAt,value
2018-06-10T00:00:34.559Z,23.64
2018-06-10T00:03:05.638Z,23.95
2018-06-10T00:05:36.404Z,24.02
2018-06-10T00:08:11.020Z,24.08
2018-06-10T00:12:51.218Z,24.07
2018-06-10T00:15:21.590Z,22.94
2018-06-10T00:17:51.774Z,22.47
2018-06-10T00:20:21.654Z,22.16
2018-06-10T00:22:52.065Z,22.25
2018-06-10T00:25:21.976Z,22.52
2018-06-10T00:27:51.885Z,21.56
2018-06-10T00:30:21.822Z,21.63
2018-06-10T00:32:51.628Z,21.53
2018-06-10T00:35:21.423Z,20.86
2018-06-10T00:37:52.295Z,21.28
2018-06-10T00:40:23.122Z,20.87
2018-06-10T00:42:53.183Z,20.69
2018-06-10T00:45:24.209Z,21.62
2018-06-10T00:47:54.233Z,21.99
2018-06-10T00:50:24.545Z,21.95
2018-06-10T00:52:54.742Z,21.98
2018-06-10T00:55:26.931Z,22.07
2018-06-10T00:57:57.068Z,21.75
2018-06-10T01:00:27.213Z,21.77
2018-06-10T01:02:58.202Z,22.13
2018-06-10T01:05:28.495Z,22.17
2018-06-10T01:07:59.601Z,22.42
2018-06-10T01:10:30.173Z,21.96
2018-06-10T01:13:01.004Z,22.29
2018-06-10T01:15:31.735Z,22.34
2018-06-10T01:18:01.938Z,22.48
2018-06-10T01:20:31.928Z,22.19
2018-06-10T01:23:02.075Z,22.44
2018-06-10T01:25:33.324Z,22.44
2018-06-10T01:28:03.475Z,22.33
2018-06-10T01:30:34.008Z,22.61
2018-06-10T01:33:04.210Z,22.66
2018-06-10T01:35:34.381Z,21.70
2018-06-10T01:38:05.320Z,22.39
2018-06-10T01:40:35.633Z,22.22
2018-06-10T01:43:05.704Z,22.12
2018-06-10T01:45:36.175Z,22.39
2018-06-10T01:48:06.394Z,22.38
2018-06-10T01:50:38.451Z,22.33
2018-06-10T01:53:08.575Z,21.47
2018-06-10T01:55:38.790Z,21.10
2018-06-10T01:58:09.132Z,21.95
2018-06-10T02:00:40.140Z,22.16
2018-06-10T02:03:10.582Z,21.37
2018-06-10T02:05:41.237Z,21.10
2018-06-10T02:08:11.309Z,20.79
2018-06-10T02:10:41.887Z,20.20
2018-06-10T02:13:12.073Z,20.25
2018-06-10T02:15:42.209Z,19.95
2018-06-10T02:18:12.177Z,19.76
2018-06-10T02:20:42.627Z,20.40
2018-06-10T02:23:12.984Z,20.65
2018-06-10T02:25:43.335Z,20.72
2018-06-10T02:28:13.635Z,20.58
2018-06-10T02:30:43.964Z,20.61
2018-06-10T02:33:14.592Z,20.57
2018-06-10T02:35:44.648Z,20.48
2018-06-10T02:38:14.857Z,20.39
2018-06-10T02:40:45.501Z,20.01
2018-06-10T02:43:16.131Z,20.33
2018-06-10T02:45:46.591Z,20.42
2018-06-10T02:48:16.642Z,20.90
2018-06-10T02:50:47.323Z,21.47
2018-06-10T02:53:17.687Z,21.67
2018-06-10T02:55:47.745Z,21.63
2018-06-10T02:58:17.821Z,21.22
2018-06-10T03:00:47.989Z,20.55
2018-06-10T03:03:17.811Z,20.13
2018-06-10T03:05:48.457Z,20.50
2018-06-10T03:08:18.663Z,21.17
2018-06-10T03:10:49.324Z,21.14
2018-06-10T03:13:21.184Z,20.54
2018-06-10T03:15:51.612Z,20.55
2018-06-10T03:18:22.126Z,20.37
2018-06-10T03:20:52.627Z,19.91
2018-06-10T03:23:22.709Z,19.86
2018-06-10T03:25:53.213Z,20.06
2018-06-10T03:28:23.157Z,20.37
2018-06-10T03:30:53.723Z,20.85
2018-06-10T03:33:23.839Z,21.01
2018-06-10T03:35:54.107Z,20.94
2018-06-10T03:38:24.647Z,21.27
2018-06-10T03:40:55.952Z,21.11
2018-06-10T03:43:26.381Z,20.38
2018-06-10T03:45:57.085Z,20.86
2018-06-10T03:48:27.773Z,21.33
2018-06-10T03:51:02.539Z,20.78
2018-06-10T03:53:34.316Z,20.18
2018-06-10T03:56:04.667Z,20.22
2018-06-10T03:58:35.756Z,19.96
2018-06-10T04:01:06.026Z,20.42
2018-06-10T04:03:37.498Z,20.73
2018-06-10T04:06:07.784Z,20.93
2018-06-10T04:08:39.436Z,21.07
2018-06-10T04:11:12.272Z,20.83
2018-06-10T04:13:42.910Z,20.51
2018-06-10T04:16:14.598Z,20.39
2018-06-10T04:18:44.959Z,20.65
2018-06-10T04:21:17.687Z,20.69
2018-06-10T04:23:49.097Z,20.16
2018-06-10T04:26:18.975Z,20.23
2018-06-10T04:28:48.996Z,20.33
2018-06-10T04:31:19.041Z,20.52
2018-06-10T04:33:49.358Z,20.87
2018-06-10T04:36:19.463Z,20.93
2018-06-10T04:38:49.251Z,20.44
2018-06-10T04:41:19.691Z,20.12
2018-06-10T04:43:49.589Z,20.20
2018-06-10T04:46:19.591Z,20.13
2018-06-10T04:48:49.382Z,20.00
2018-06-10T04:51:20.594Z,20.18
2018-06-10T04:53:50.700Z,20.22
2018-06-10T04:56:20.623Z,20.23
2018-06-10T04:58:50.776Z,20.24
2018-06-10T05:01:20.733Z,20.31
2018-06-10T05:03:50.643Z,20.34
2018-06-10T05:06:20.754Z,19.82
2018-06-10T05:08:50.725Z,20.18
2018-06-10T05:11:21.135Z,20.55
2018-06-10T05:13:51.166Z,20.87
2018-06-10T05:16:26.464Z,20.67
2018-06-10T05:18:57.183Z,20.80
2018-06-10T05:21:28.058Z,20.92
2018-06-10T05:24:07.277Z,21.06
2018-06-10T05:26:48.471Z,21.08
2018-06-10T05:29:19.686Z,21.10
2018-06-10T05:31:50.716Z,20.82
2018-06-10T05:34:20.685Z,20.79
2018-06-10T05:36:50.872Z,20.69
2018-06-10T05:42:34.212Z,21.11
2018-06-10T05:48:49.996Z,20.79
2018-06-10T05:51:21.203Z,20.77
2018-06-10T06:20:19.200Z,20.74
2018-06-10T06:22:49.272Z,20.45
2018-06-10T06:26:26.594Z,20.55
2018-06-10T06:28:56.860Z,20.50
2018-06-10T06:31:28.406Z,20.76
2018-06-10T06:34:25.549Z,20.93
2018-06-10T06:57:27.129Z,20.83
2018-06-10T12:48:35.954Z,25.46
2018-06-10T12:51:08.385Z,25.74
2018-06-10T12:56:48.265Z,25.19
2018-06-10T12:59:18.588Z,25.47
2018-06-10T13:02:07.144Z,25.12
2018-06-10T13:04:37.700Z,25.24
2018-06-10T13:07:08.619Z,25.39
2018-06-10T13:10:14.806Z,25.20
2018-06-10T13:12:50.249Z,25.64
2018-06-10T13:15:36.273Z,25.44
2018-06-10T13:18:08.507Z,25.56
2018-06-10T13:23:21.932Z,24.80
2018-06-10T13:25:52.852Z,24.86
2018-06-10T13:28:34.956Z,24.86
2018-06-10T13:31:06.706Z,25.12
2018-06-10T13:33:37.838Z,25.36
2018-06-10T13:36:08.163Z,25.13
2018-06-10T13:38:39.394Z,25.22
2018-06-10T13:41:12.487Z,25.41
2018-06-10T13:43:52.170Z,25.66
2018-06-10T13:46:28.756Z,25.80
2018-06-10T13:49:00.252Z,25.98
2018-06-10T13:51:38.539Z,25.67
2018-06-10T13:54:10.411Z,25.55
2018-06-10T13:56:45.920Z,25.41
2018-06-10T14:02:15.012Z,25.28
2018-06-10T14:04:44.778Z,24.84
2018-06-10T14:10:45.296Z,24.75
2018-06-10T14:13:27.086Z,24.81
2018-06-10T14:16:01.712Z,24.70
2018-06-10T14:18:33.550Z,24.86
2018-06-10T14:21:03.529Z,25.02
2018-06-10T14:23:33.801Z,24.82
2018-06-10T14:26:03.660Z,24.93
2018-06-10T14:28:33.542Z,25.03
2018-06-10T14:31:03.619Z,25.22
2018-06-10T14:33:34.447Z,25.04
2018-06-10T14:36:04.612Z,25.09
2018-06-10T14:38:34.854Z,25.01
2018-06-10T14:41:04.708Z,25.31
2018-06-10T14:43:34.640Z,24.65
2018-06-10T14:46:04.723Z,25.27
2018-06-10T14:48:34.576Z,25.40
2018-06-10T14:51:04.586Z,25.59
2018-06-10T14:53:35.115Z,25.33
2018-06-10T14:56:05.139Z,25.49
2018-06-10T14:58:35.188Z,25.48
2018-06-10T15:01:05.408Z,25.39
2018-06-10T15:03:35.264Z,25.37
2018-06-10T15:06:06.507Z,25.62
2018-06-10T15:08:37.026Z,25.10
2018-06-10T15:11:07.970Z,25.07
2018-06-10T15:13:39.719Z,25.28
2018-06-10T15:16:10.134Z,25.39
2018-06-10T15:18:42.219Z,25.27
2018-06-10T15:21:12.494Z,25.34
2018-06-10T15:23:42.955Z,25.27
2018-06-10T15:26:13.405Z,25.21
2018-06-10T15:28:47.432Z,25.43
2018-06-10T15:31:21.093Z,25.50
2018-06-10T15:34:05.470Z,25.69
2018-06-10T15:36:36.866Z,25.25
2018-06-10T15:39:10.472Z,25.37
2018-06-10T15:41:45.729Z,25.39
2018-06-10T15:44:16.616Z,25.62
2018-06-10T15:46:47.102Z,25.74
2018-06-10T15:49:22.050Z,25.79
2018-06-10T15:51:58.731Z,25.91
2018-06-10T15:54:31.796Z,25.97
2018-06-10T15:57:03.543Z,25.71
2018-06-10T15:59:34.387Z,25.78
2018-06-10T16:02:04.926Z,25.34
2018-06-10T16:04:37.359Z,25.42
2018-06-10T16:07:10.409Z,25.32
2018-06-10T16:09:44.004Z,25.30
2018-06-10T16:12:22.222Z,25.55
2018-06-10T16:14:55.150Z,25.27
2018-06-10T16:17:31.576Z,25.30
2018-06-10T16:20:02.051Z,25.28
2018-06-10T16:22:32.443Z,25.33
2018-06-10T16:25:02.783Z,25.03
2018-06-10T16:27:33.400Z,25.41
2018-06-10T16:30:03.252Z,25.09
2018-06-10T16:32:33.507Z,25.28
2018-06-10T16:35:03.669Z,25.19
2018-06-10T16:37:33.619Z,25.29
2018-06-10T16:40:03.751Z,25.51
2018-06-10T16:42:33.856Z,25.33
2018-06-10T16:45:03.795Z,25.25
2018-06-10T16:47:33.791Z,25.25
2018-06-10T16:50:03.909Z,25.24
2018-06-10T16:52:34.116Z,25.10
2018-06-10T16:55:05.469Z,25.30
2018-06-10T16:57:36.965Z,25.24
2018-06-10T17:00:09.552Z,25.40
2018-06-10T17:02:42.956Z,25.47
2018-06-10T17:05:15.917Z,25.10
2018-06-10T17:07:54.821Z,25.21
2018-06-10T17:10:28.325Z,25.23
2018-06-10T17:13:01.989Z,24.90
2018-06-10T17:15:32.451Z,24.98
2018-06-10T17:18:04.500Z,25.06
2018-06-10T17:20:37.039Z,25.31
2018-06-10T17:23:11.515Z,25.03
2018-06-10T17:25:54.147Z,24.92
2018-06-10T17:29:04.590Z,24.91
2018-06-10T17:34:44.058Z,24.88
2018-06-10T17:37:44.394Z,24.93
2018-06-10T17:40:15.262Z,24.63
2018-06-10T17:43:00.199Z,24.90
2018-06-10T17:45:45.828Z,24.57
2018-06-10T17:52:53.063Z,24.80
2018-06-10T17:57:10.288Z,24.67
2018-06-10T17:59:46.123Z,24.33
2018-06-10T18:02:25.559Z,24.47
2018-06-10T18:04:56.309Z,24.65
2018-06-10T18:07:54.477Z,24.37
2018-06-10T18:10:27.445Z,24.29
2018-06-10T18:12:58.248Z,24.29
2018-06-10T18:15:30.368Z,24.17
2018-06-10T18:18:02.984Z,24.32
2018-06-10T18:21:25.878Z,24.54
2018-06-10T18:27:25.531Z,23.95
2018-06-10T18:29:55.770Z,24.10
2018-06-10T18:32:32.681Z,24.03
2018-06-10T18:35:08.594Z,24.14
2018-06-10T18:37:40.273Z,23.57
2018-06-10T18:40:16.299Z,23.67
2018-06-10T18:42:47.303Z,23.99
2018-06-10T18:45:17.818Z,24.04
2018-06-10T18:47:47.914Z,24.07
2018-06-10T18:50:17.871Z,24.04
2018-06-10T18:53:14.158Z,23.94
2018-06-10T18:59:01.593Z,23.98
2018-06-10T19:01:52.428Z,24.14
2018-06-10T19:04:30.143Z,24.11
2018-06-10T19:07:00.908Z,24.05
2018-06-10T19:09:42.574Z,23.80
2018-06-10T19:12:18.736Z,23.49
2018-06-10T19:14:49.549Z,23.77
2018-06-10T19:17:20.089Z,24.00
2018-06-10T19:19:58.056Z,23.54
2018-06-10T19:22:29.532Z,23.57
2018-06-10T19:24:59.704Z,23.90
2018-06-10T19:27:31.023Z,23.91
2018-06-10T19:30:01.318Z,23.63
2018-06-10T19:32:33.268Z,23.42
2018-06-10T19:35:13.159Z,23.51
2018-06-10T19:37:57.978Z,23.38
2018-06-10T19:40:31.071Z,23.20
2018-06-10T19:43:02.318Z,23.35
2018-06-10T19:45:32.559Z,23.51
2018-06-10T19:48:08.984Z,23.20
2018-06-10T19:50:55.024Z,23.49
2018-06-10T19:53:30.993Z,23.16
2018-06-10T19:56:01.248Z,23.00
2018-06-10T19:58:31.241Z,23.28
2018-06-10T20:01:01.120Z,23.07
2018-06-10T20:03:31.077Z,23.44
2018-06-10T20:06:01.409Z,23.28
2018-06-10T20:08:31.470Z,23.35
2018-06-10T20:11:01.969Z,22.77
2018-06-10T20:13:32.017Z,22.81
2018-06-10T20:16:01.959Z,22.65
2018-06-10T20:21:19.533Z,23.05
2018-06-10T20:24:00.183Z,23.07
2018-06-10T20:26:31.010Z,22.92
2018-06-10T20:29:00.876Z,22.49
2018-06-10T20:31:31.036Z,22.58
2018-06-10T20:34:01.993Z,22.71
2018-06-10T20:36:31.893Z,22.40
2018-06-10T20:39:01.961Z,22.82
2018-06-10T20:41:32.019Z,22.90
2018-06-10T20:44:01.847Z,22.85
2018-06-10T20:46:36.575Z,22.23
2018-06-10T20:49:14.058Z,22.63
2018-06-10T20:51:49.015Z,22.19
2018-06-10T20:54:20.290Z,22.47
2018-06-10T20:56:50.680Z,22.26
2018-06-10T20:59:22.527Z,21.97
2018-06-10T21:01:53.548Z,22.01
2018-06-10T21:04:27.356Z,21.56
2018-06-10T21:06:57.964Z,22.10
2018-06-10T21:09:27.995Z,21.99
2018-06-10T21:11:57.786Z,21.97
2018-06-10T21:14:27.750Z,21.61
2018-06-10T21:17:07.596Z,21.61
2018-06-10T21:19:38.135Z,21.98
2018-06-10T21:22:12.740Z,21.69
2018-06-10T21:27:25.529Z,21.30
2018-06-10T21:29:55.703Z,21.14
2018-06-10T21:32:25.750Z,20.63
2018-06-10T21:34:55.675Z,20.94
2018-06-10T21:37:25.899Z,20.80
2018-06-10T21:39:55.841Z,20.57
2018-06-10T21:42:25.729Z,20.65
2018-06-10T21:47:55.826Z,20.15
2018-06-10T21:50:26.294Z,20.27
2018-06-10T21:52:56.706Z,20.34
2018-06-10T21:55:28.017Z,20.14
2018-06-10T22:01:07.659Z,19.98
2018-06-10T22:03:37.732Z,19.96
2018-06-10T22:06:21.777Z,19.94
2018-06-10T22:11:40.448Z,20.03
2018-06-10T22:14:32.396Z,19.74
2018-06-10T22:17:02.532Z,19.88
2018-06-10T22:19:52.457Z,19.64
2018-06-10T22:22:22.700Z,19.75
2018-06-10T22:25:08.696Z,19.61
2018-06-10T22:27:38.971Z,19.77
2018-06-10T22:30:08.952Z,19.48
2018-06-10T22:32:38.732Z,19.25
2018-06-10T22:35:08.719Z,19.53
2018-06-10T22:37:38.898Z,19.65
2018-06-10T22:40:08.971Z,19.50
2018-06-10T22:42:39.015Z,19.64
2018-06-10T22:48:46.480Z,19.57
2018-06-10T22:57:29.776Z,19.17
2018-06-10T23:00:24.080Z,19.53
2018-06-10T23:02:54.210Z,19.30
2018-06-10T23:05:24.379Z,19.27
2018-06-10T23:07:59.410Z,19.13
2018-06-10T23:10:29.247Z,18.86
2018-06-10T23:12:59.181Z,18.99
2018-06-10T23:15:29.033Z,18.97
2018-06-10T23:17:59.068Z,19.26
2018-06-10T23:20:29.179Z,19.27
2018-06-10T23:22:59.285Z,19.22
2018-06-10T23:25:29.092Z,18.95
2018-06-10T23:27:59.185Z,18.86
2018-06-10T23:30:29.062Z,18.96
2018-06-10T23:32:58.930Z,19.09
2018-06-10T23:35:28.784Z,19.00
2018-06-10T23:37:58.651Z,18.79
2018-06-10T23:40:28.508Z,19.06
2018-06-10T23:42:58.435Z,18.98
2018-06-10T23:45:28.368Z,19.12
2018-06-10T23:47:58.372Z,19.32
2018-06-10T23:50:28.299Z,19.18
2018-06-10T23:53:00.049Z,19.06
2018-06-10T23:55:30.082Z,18.87
2018-06-10T23:58:00.391Z,19.16
